University, New York
Current Conditions -  °F | °C
As of 8:54 PM on Friday 24 Oct 2014 (Local Time) from KSYR Reporting Station
Overcast Overcast  
Wind Chill: 44°   Ceiling: 25000
Heat Index: 47°   Visibility: 10mi
Dew Point: 39°   Wind: 7mph
Humidity: 74%   Direction: 250°WSW
Pressure: 29.91"   Gusts: NA
Location:  43.048°N, 76.1477°W
Report Text: KSYR 250054Z 25006KT 10SM OVC250 08/04 A2991 RMK AO2 SLP128 OVC V BKN T00830039
Loading
Personal Weather Stations






























Interactive Weather Map
Tropical Storm Tracking
New forecast layout! Learn more

10-Day Weather Forecast

Advertisements
Track Severe Weather on mobile